Time;durP1;ratioP1;P1;durP2;ratioP2;P2;SDS_P1;SDS_P2;PMS_P1;PMS_P2;Temp;Humidity;BMP_temperature;BMP_pressure;BME280_temperature;BME280_humidity;BME280_pressure;Samples;Min_cycle;Max_cycle;Signal;HPM_P1;HPM_P2
2023/08/09 00:02:10;;;;;;;;;4.20;3.80;;;;;18.41;100.00;98642.22;6291579;27;96320;-62
2023/08/09 00:05:13;;;;;;;;;5.00;4.20;;;;;18.45;100.00;98637.84;6263341;27;97277;-62
2023/08/09 00:08:16;;;;;;;;;4.00;4.00;;;;;18.43;100.00;98634.56;6291671;27;96268;-62
2023/08/09 00:11:21;;;;;;;;;4.00;4.00;;;;;18.51;100.00;98630.44;6290654;27;96439;-62
2023/08/09 00:14:24;;;;;;;;;4.00;4.00;;;;;18.53;100.00;98626.38;6290757;27;96307;-62
2023/08/09 00:17:27;;;;;;;;;4.00;3.80;;;;;18.58;100.00;98628.25;6290312;27;96986;-62
2023/08/09 00:20:32;;;;;;;;;4.00;4.00;;;;;18.62;100.00;98629.31;6290734;27;96973;-62
2023/08/09 00:23:35;;;;;;;;;4.00;4.00;;;;;18.66;100.00;98624.97;6268044;27;96355;-62
2023/08/09 00:26:40;;;;;;;;;3.20;3.00;;;;;18.73;100.00;98620.00;6272544;27;96885;-62
2023/08/09 00:29:43;;;;;;;;;3.00;3.00;;;;;18.76;100.00;98624.09;6291109;27;96944;-62
2023/08/09 00:32:46;;;;;;;;;4.00;4.00;;;;;18.79;100.00;98621.59;6291058;27;96359;-62
2023/08/09 00:35:49;;;;;;;;;3.00;3.00;;;;;18.81;100.00;98627.63;6269964;27;96967;-62
2023/08/09 00:38:53;;;;;;;;;3.00;3.00;;;;;18.82;100.00;98631.97;6264484;27;96364;-62
2023/08/09 00:41:57;;;;;;;;;3.00;3.00;;;;;18.86;100.00;98626.78;6270969;27;98471;-62
2023/08/09 00:45:03;;;;;;;;;6.00;5.00;;;;;18.83;100.00;98622.66;6262764;27;96465;-62
2023/08/09 00:48:06;;;;;;;;;4.00;4.00;;;;;18.85;100.00;98622.41;6271813;27;98369;-61
2023/08/09 00:51:10;;;;;;;;;3.00;2.40;;;;;18.86;100.00;98622.09;6290243;27;96440;-62
2023/08/09 00:54:13;;;;;;;;;4.00;4.00;;;;;18.86;100.00;98604.91;6255898;27;96418;-62
2023/08/09 00:57:18;;;;;;;;;3.00;3.00;;;;;18.84;100.00;98607.09;6290112;27;96790;-62
2023/08/09 01:00:21;;;;;;;;;3.33;3.33;;;;;18.84;100.00;98605.19;6246233;27;97517;-62
2023/08/09 01:03:24;;;;;;;;;2.00;2.00;;;;;18.84;100.00;98607.09;6270162;27;96320;-62
2023/08/09 01:06:33;;;;;;;;;5.00;5.00;;;;;18.83;100.00;98602.72;6271182;27;96861;-62
2023/08/09 01:09:43;;;;;;;;;3.00;3.00;;;;;18.87;100.00;98604.63;6271746;27;96842;-62
2023/08/09 01:12:53;;;;;;;;;3.75;3.75;;;;;18.90;100.00;98604.06;6289402;27;96378;-63
2023/08/09 01:15:57;;;;;;;;;2.60;2.60;;;;;18.91;100.00;98611.13;6272594;27;96549;-62
2023/08/09 01:19:02;;;;;;;;;5.00;4.00;;;;;18.90;100.00;98620.47;6273400;27;96718;-62
2023/08/09 01:22:13;;;;;;;;;4.00;4.00;;;;;18.90;100.00;98620.47;6270013;27;98891;-62
2023/08/09 01:25:18;;;;;;;;;4.00;4.00;;;;;18.92;100.00;98629.16;6263645;27;96522;-62
2023/08/09 01:28:21;;;;;;;;;4.00;4.00;;;;;18.92;100.00;98634.63;6260526;27;98673;-62
2023/08/09 01:31:24;;;;;;;;;5.00;5.00;;;;;18.87;100.00;98636.56;6280760;27;96436;-62
2023/08/09 01:34:28;;;;;;;;;4.00;4.00;;;;;18.93;100.00;98641.75;6262949;27;96698;-63
2023/08/09 01:37:37;;;;;;;;;4.80;4.00;;;;;18.93;100.00;98644.47;6269473;27;97209;-62
2023/08/09 01:40:42;;;;;;;;;3.40;3.00;;;;;18.93;100.00;98644.47;6258571;27;96402;-63
2023/08/09 01:43:46;;;;;;;;;3.00;3.00;;;;;18.89;100.00;98637.13;6289546;27;96367;-62
2023/08/09 01:46:49;;;;;;;;;6.00;6.00;;;;;18.92;100.00;98640.09;6289259;27;96829;-62
2023/08/09 01:49:53;;;;;;;;;4.40;4.40;;;;;18.90;100.00;98647.78;6254288;27;97799;-62
2023/08/09 01:52:58;;;;;;;;;3.00;3.00;;;;;18.90;100.00;98645.03;6288834;27;96961;-62
2023/08/09 01:56:02;;;;;;;;;3.00;3.00;;;;;18.89;100.00;98648.88;6287720;27;96329;-62
2023/08/09 01:59:06;;;;;;;;;5.40;5.40;;;;;18.89;100.00;98646.13;6268927;27;96961;-62
2023/08/09 02:02:09;;;;;;;;;4.00;4.00;;;;;18.85;100.00;98661.47;6269987;27;96651;-62
2023/08/09 02:05:12;;;;;;;;;4.00;3.40;;;;;18.79;100.00;98650.81;6281876;27;97208;-62
2023/08/09 02:08:16;;;;;;;;;2.60;2.60;;;;;18.73;100.00;98650.03;6270499;27;96407;-61
2023/08/09 02:11:22;;;;;;;;;2.33;2.33;;;;;18.74;100.00;98656.31;6257222;27;96538;-62
2023/08/09 02:14:28;;;;;;;;;4.25;3.00;;;;;18.75;100.00;98660.69;6290065;27;96361;-62
2023/08/09 02:17:32;;;;;;;;;4.00;4.00;;;;;18.73;100.00;98665.59;6265350;27;96434;-62
2023/08/09 02:20:36;;;;;;;;;4.00;4.00;;;;;18.72;100.00;98659.31;6266870;27;96438;-62
2023/08/09 02:23:40;;;;;;;;;4.00;4.00;;;;;18.73;100.00;98658.22;6288657;27;96434;-62
2023/08/09 02:26:45;;;;;;;;;5.00;5.00;;;;;18.75;100.00;98657.97;6284913;27;96967;-62
2023/08/09 02:29:49;;;;;;;;;6.00;5.00;;;;;18.74;100.00;98661.78;6269528;27;96347;-63
2023/08/09 02:32:52;;;;;;;;;5.00;4.00;;;;;18.75;100.00;98660.69;6284996;27;97935;-62
2023/08/09 02:36:00;;;;;;;;;4.60;4.60;;;;;18.75;100.00;98653.31;6250997;27;97567;-62
2023/08/09 02:39:04;;;;;;;;;5.00;5.00;;;;;18.76;100.00;98657.69;6262278;27;96384;-61
2023/08/09 02:42:09;;;;;;;;;5.00;5.00;;;;;18.74;100.00;98657.13;6268619;27;96850;-62
2023/08/09 02:45:12;;;;;;;;;4.00;4.00;;;;;18.78;100.00;98660.13;6265453;27;96558;-62
2023/08/09 02:48:16;;;;;;;;;4.00;4.00;;;;;18.80;100.00;98666.94;6248468;27;97666;-62
2023/08/09 02:51:19;;;;;;;;;5.40;5.00;;;;;18.81;100.00;98665.84;6268694;27;96626;-62
2023/08/09 02:54:22;;;;;;;;;6.00;5.50;;;;;18.81;100.00;98665.03;6288277;27;96564;-62
2023/08/09 02:57:27;;;;;;;;;4.00;4.00;;;;;18.84;100.00;98659.00;6286009;27;96351;-62
2023/08/09 03:00:30;;;;;;;;;2.40;2.40;;;;;18.84;100.00;98665.28;6252157;27;96314;-62
2023/08/09 03:03:33;;;;;;;;;4.00;4.00;;;;;18.93;100.00;98669.06;6285874;27;96240;-62
2023/08/09 03:06:37;;;;;;;;;3.00;3.00;;;;;18.95;100.00;98666.06;6261376;27;96421;-62
2023/08/09 03:09:40;;;;;;;;;3.00;3.00;;;;;18.92;100.00;98663.88;6269299;27;97079;-62
2023/08/09 03:12:45;;;;;;;;;5.60;5.60;;;;;18.84;100.00;98661.72;6268591;27;96457;-62
2023/08/09 03:15:48;;;;;;;;;3.80;3.80;;;;;18.85;100.00;98674.28;6267867;27;96889;-62
2023/08/09 03:18:52;;;;;;;;;3.00;3.00;;;;;18.82;100.00;98678.38;6251752;27;99538;-62
2023/08/09 03:21:55;;;;;;;;;3.00;3.00;;;;;18.82;100.00;98669.38;6264268;27;97762;-62
2023/08/09 03:24:59;;;;;;;;;3.00;3.00;;;;;18.80;100.00;98677.88;6261119;27;96590;-62
2023/08/09 03:28:04;;;;;;;;;3.00;2.00;;;;;18.77;100.00;98683.88;6285807;27;97761;-62
2023/08/09 03:31:09;;;;;;;;;3.00;3.00;;;;;18.76;100.00;98674.06;6243616;27;98491;-62
2023/08/09 03:34:14;;;;;;;;;5.00;5.00;;;;;18.75;100.00;98672.44;6263178;27;96727;-62
2023/08/09 03:37:19;;;;;;;;;4.00;4.00;;;;;18.76;100.00;98684.16;6243745;27;97040;-63
2023/08/09 03:40:23;;;;;;;;;4.00;4.00;;;;;18.77;100.00;98681.13;6270995;27;96239;-62
2023/08/09 03:43:29;;;;;;;;;5.00;4.00;;;;;18.76;100.00;98682.25;6286462;27;96391;-62
2023/08/09 03:46:32;;;;;;;;;4.00;4.00;;;;;18.77;100.00;98680.31;6268210;27;96369;-62
2023/08/09 03:49:36;;;;;;;;;5.00;4.50;;;;;18.71;100.00;98685.00;6267540;27;96253;-62
2023/08/09 03:52:39;;;;;;;;;4.00;3.00;;;;;18.57;100.00;98673.03;6261958;27;96561;-62
2023/08/09 03:55:43;;;;;;;;;5.00;4.00;;;;;18.60;100.00;98677.94;6282887;27;97691;-63
2023/08/09 03:58:48;;;;;;;;;4.40;4.00;;;;;18.61;100.00;98679.59;6280705;27;96205;-63
2023/08/09 04:01:52;;;;;;;;;6.60;6.40;;;;;18.57;100.00;98686.69;6263397;27;97188;-63
2023/08/09 04:04:55;;;;;;;;;6.00;6.00;;;;;18.62;100.00;98685.88;6277042;27;96641;-63
2023/08/09 04:08:01;;;;;;;;;5.00;4.00;;;;;18.64;100.00;98679.03;6284972;27;96916;-61
2023/08/09 04:11:05;;;;;;;;;5.00;4.00;;;;;18.67;100.00;98689.38;6285608;27;96500;-62
2023/08/09 04:14:09;;;;;;;;;5.00;5.00;;;;;18.70;100.00;98693.47;6278185;27;98395;-62
2023/08/09 04:17:13;;;;;;;;;5.00;4.20;;;;;18.74;100.00;98689.09;6242612;27;98639;-62
2023/08/09 04:20:17;;;;;;;;;4.40;4.40;;;;;18.82;100.00;98696.69;6258342;27;96237;-62
2023/08/09 04:23:21;;;;;;;;;4.00;4.00;;;;;18.89;100.00;98697.22;6259689;27;96736;-62
2023/08/09 04:26:25;;;;;;;;;7.40;6.40;;;;;18.95;100.00;98696.91;6284947;27;96911;-63
2023/08/09 04:29:29;;;;;;;;;4.20;3.60;;;;;19.01;100.00;98689.50;6282319;27;98711;-63
2023/08/09 04:32:33;;;;;;;;;7.00;6.00;;;;;19.06;100.00;98694.13;6290342;27;96562;-62
2023/08/09 04:35:36;;;;;;;;;4.00;4.00;;;;;19.13;100.00;98695.44;6259803;27;96980;-62
2023/08/09 04:38:39;;;;;;;;;6.50;5.00;;;;;19.21;100.00;98699.50;6289627;27;96921;-62
2023/08/09 04:41:42;;;;;;;;;5.00;4.00;;;;;19.23;100.00;98700.03;6290999;27;96581;-62
2023/08/09 04:44:47;;;;;;;;;4.00;4.00;;;;;19.28;100.00;98698.09;6290605;27;96622;-64
2023/08/09 04:47:52;;;;;;;;;4.00;4.00;;;;;19.37;100.00;98704.59;6290108;27;96519;-62
2023/08/09 04:50:55;;;;;;;;;4.60;4.00;;;;;19.46;100.00;98692.00;6290382;27;96915;-62
2023/08/09 04:53:59;;;;;;;;;4.00;3.00;;;;;19.54;100.00;98704.25;6288182;27;98491;-62
2023/08/09 04:57:02;;;;;;;;;4.00;3.80;;;;;19.65;100.00;98697.59;6269425;27;97341;-62
2023/08/09 05:00:09;;;;;;;;;5.00;5.00;;;;;19.77;100.00;98697.25;6289018;27;97527;-63
2023/08/09 05:03:13;;;;;;;;;4.00;4.00;;;;;19.86;100.00;98690.88;6289158;27;97023;-62
2023/08/09 05:06:16;;;;;;;;;4.00;4.00;;;;;19.85;100.00;98683.75;6288897;27;98015;-62
2023/08/09 05:09:20;;;;;;;;;4.00;4.00;;;;;19.94;100.00;98694.09;6286249;27;96556;-62
2023/08/09 05:12:23;;;;;;;;;4.00;3.00;;;;;20.03;100.00;98687.72;6289724;27;96406;-62
2023/08/09 05:15:27;;;;;;;;;2.25;2.25;;;;;19.96;100.00;98678.19;6289018;27;97654;-62
2023/08/09 05:18:34;;;;;;;;;4.00;3.60;;;;;20.09;100.00;98680.25;6286033;27;96799;-62
2023/08/09 05:21:40;;;;;;;;;4.00;4.00;;;;;20.13;100.00;98667.66;6287847;27;96355;-62
2023/08/09 05:24:43;;;;;;;;;4.00;3.00;;;;;20.19;100.00;98666.47;6286217;27;96729;-62
2023/08/09 05:27:47;;;;;;;;;2.00;2.00;;;;;20.30;100.00;98673.47;6288306;27;96330;-63
2023/08/09 05:30:52;;;;;;;;;4.00;3.00;;;;;20.48;100.00;98680.97;6254248;27;99152;-62
2023/08/09 05:33:56;;;;;;;;;3.00;3.00;;;;;20.63;100.00;98685.44;6288385;27;96795;-62
2023/08/09 05:36:59;;;;;;;;;3.00;2.00;;;;;20.74;100.00;98687.78;6289527;27;96363;-62
2023/08/09 05:40:04;;;;;;;;;3.00;3.00;;;;;20.98;100.00;98690.50;6252561;27;96870;-62
2023/08/09 05:43:07;;;;;;;;;2.40;2.40;;;;;21.18;100.00;98689.44;6270160;27;98656;-62
2023/08/09 05:46:12;;;;;;;;;3.40;3.00;;;;;21.38;100.00;98694.63;6279250;27;96868;-62
2023/08/09 05:49:15;;;;;;;;;3.20;3.20;;;;;21.66;100.00;98692.84;6267646;27;97003;-63
2023/08/09 05:52:18;;;;;;;;;4.00;4.00;;;;;21.98;100.00;98692.06;6269487;27;96349;-62
2023/08/09 05:55:21;;;;;;;;;3.00;3.00;;;;;22.18;100.00;98691.72;6287729;27;96634;-62
2023/08/09 05:58:25;;;;;;;;;4.60;3.00;;;;;22.31;100.00;98696.41;6288210;27;96405;-63
2023/08/09 06:01:31;;;;;;;;;2.00;2.00;;;;;22.37;100.00;98691.66;6286295;27;96946;-63
2023/08/09 06:04:35;;;;;;;;;2.25;2.25;;;;;22.40;100.00;98683.63;6266809;27;96702;-62
2023/08/09 06:07:38;;;;;;;;;3.60;3.00;;;;;22.46;100.00;98681.59;6269248;27;97005;-62
2023/08/09 06:10:41;;;;;;;;;3.00;2.00;;;;;22.48;100.00;98679.34;6288182;27;96413;-62
2023/08/09 06:13:45;;;;;;;;;2.00;2.00;;;;;22.57;100.00;98684.94;6267964;27;97097;-62
2023/08/09 06:16:50;;;;;;;;;3.00;3.00;;;;;22.75;100.00;98681.31;6271020;27;96777;-63
2023/08/09 06:19:53;;;;;;;;;3.00;3.00;;;;;22.90;100.00;98675.50;6288558;27;96795;-62
2023/08/09 06:22:56;;;;;;;;;2.00;2.00;;;;;23.11;100.00;98684.13;6262275;27;96604;-62
2023/08/09 06:26:00;;;;;;;;;2.50;2.00;;;;;23.25;100.00;98682.16;6287161;27;96325;-63
2023/08/09 06:29:03;;;;;;;;;2.00;2.00;;;;;23.30;100.00;98685.63;6288485;27;96482;-62
2023/08/09 06:32:08;;;;;;;;;3.00;3.00;;;;;23.40;100.00;98687.31;6269017;27;98609;-63
2023/08/09 06:35:11;;;;;;;;;3.00;2.60;;;;;23.58;100.00;98685.56;6262502;27;96490;-63
2023/08/09 06:38:15;;;;;;;;;3.80;3.00;;;;;23.72;100.00;98670.63;6261633;27;96857;-63
2023/08/09 06:41:18;;;;;;;;;4.00;4.00;;;;;23.86;100.00;98669.72;6270710;27;96569;-63
2023/08/09 06:44:21;;;;;;;;;4.00;3.00;;;;;23.84;100.00;98670.06;6289061;27;96313;-63
2023/08/09 06:47:26;;;;;;;;;4.25;4.25;;;;;24.05;100.00;98673.09;6263907;27;96588;-62
2023/08/09 06:50:29;;;;;;;;;4.20;4.00;;;;;24.39;100.00;98673.31;6244496;27;96753;-62
2023/08/09 06:53:33;;;;;;;;;4.00;4.00;;;;;24.74;100.00;98684.47;6283413;27;96613;-63
2023/08/09 06:56:36;;;;;;;;;3.00;2.60;;;;;24.98;100.00;98682.13;6275255;27;96446;-62
2023/08/09 06:59:39;;;;;;;;;3.00;3.00;;;;;25.13;100.00;98683.63;6283742;27;96389;-63
2023/08/09 07:02:45;;;;;;;;;2.80;2.80;;;;;25.08;100.00;98692.06;6274461;27;96285;-63
2023/08/09 07:05:51;;;;;;;;;3.40;3.40;;;;;24.97;100.00;98694.31;6286224;27;96187;-63
2023/08/09 07:08:55;;;;;;;;;3.00;3.00;;;;;24.92;100.00;98692.50;6287998;27;96371;-63
2023/08/09 07:11:58;;;;;;;;;3.00;2.60;;;;;24.89;100.00;98687.63;6265874;27;97053;-63
2023/08/09 07:15:01;;;;;;;;;3.00;3.00;;;;;25.00;100.00;98691.72;6280624;27;96758;-63
2023/08/09 07:18:05;;;;;;;;;5.00;4.00;;;;;25.13;100.00;98683.63;6269248;27;97598;-64
2023/08/09 07:21:09;;;;;;;;;2.00;2.00;;;;;25.29;100.00;98685.63;6261448;27;96637;-63
2023/08/09 07:24:12;;;;;;;;;2.00;2.00;;;;;25.44;100.00;98676.88;6272002;27;96485;-63
2023/08/09 07:27:15;;;;;;;;;3.00;3.00;;;;;25.56;100.00;98684.50;6288063;27;96610;-63
2023/08/09 07:30:19;;;;;;;;;3.00;3.00;;;;;25.73;100.00;98692.00;6288163;27;96573;-63
2023/08/09 07:33:23;;;;;;;;;5.00;5.00;;;;;25.88;100.00;98691.50;6250902;27;96729;-63
2023/08/09 07:36:27;;;;;;;;;4.00;3.00;;;;;25.90;100.00;98697.50;6237989;27;96747;-65
2023/08/09 07:39:30;;;;;;;;;2.00;2.00;;;;;26.08;100.00;98692.75;6288070;27;96394;-63
2023/08/09 07:42:35;;;;;;;;;2.00;2.00;;;;;26.17;100.00;98685.25;6243704;27;98646;-63
2023/08/09 07:45:42;;;;;;;;;3.00;3.00;;;;;26.42;100.00;98686.38;6283832;27;96339;-63
2023/08/09 07:48:46;;;;;;;;;2.00;2.00;;;;;26.67;100.00;98686.28;6273644;27;96338;-64
2023/08/09 07:51:50;;;;;;;;;2.00;2.00;;;;;26.81;100.00;98685.22;6283900;27;96897;-63
2023/08/09 07:54:53;;;;;;;;;2.00;2.00;;;;;26.88;100.00;98685.56;6260782;27;96821;-63
2023/08/09 07:57:56;;;;;;;;;2.00;2.00;;;;;26.77;100.00;98689.81;6269528;27;96760;-63
2023/08/09 08:01:04;;;;;;;;;4.00;3.60;;;;;26.68;100.00;98687.09;6287150;27;96443;-63
2023/08/09 08:04:08;;;;;;;;;2.20;1.80;;;;;26.70;100.00;98691.13;6256510;27;97450;-63
2023/08/09 08:07:13;;;;;;;;;2.00;1.25;;;;;26.73;100.00;98690.44;6292329;27;96367;-63
2023/08/09 08:10:16;;;;;;;;;3.00;3.00;;;;;26.74;100.00;98689.31;6281450;27;96681;-63
2023/08/09 08:13:19;;;;;;;;;2.00;2.00;;;;;26.80;100.00;98689.13;6273865;27;96749;-63
2023/08/09 08:16:23;;;;;;;;;1.00;1.00;;;;;26.88;100.00;98689.09;6280442;27;96898;-63
2023/08/09 08:19:27;;;;;;;;;3.00;2.00;;;;;26.80;100.00;98681.66;6285597;27;96649;-63
2023/08/09 08:22:30;;;;;;;;;2.00;2.00;;;;;26.86;100.00;98687.81;6280635;27;97140;-63
2023/08/09 08:25:34;;;;;;;;;3.00;3.00;;;;;26.93;100.00;98679.81;6285491;27;96497;-63
2023/08/09 08:28:37;;;;;;;;;4.00;3.00;;;;;27.29;100.00;98685.63;6291782;27;96366;-63
2023/08/09 08:31:40;;;;;;;;;3.00;3.00;;;;;27.44;100.00;98685.03;6252332;27;98732;-64
2023/08/09 08:34:45;;;;;;;;;3.00;3.00;;;;;27.60;100.00;98678.91;6265271;27;96718;-63
2023/08/09 08:37:49;;;;;;;;;2.00;2.00;;;;;27.70;100.00;98684.84;6290511;27;96569;-64
2023/08/09 08:40:54;;;;;;;;;3.00;3.00;;;;;27.74;100.00;98683.00;6301395;27;96764;-63
2023/08/09 08:43:57;;;;;;;;;2.40;2.00;;;;;27.84;100.00;98682.59;6257220;27;96889;-63
2023/08/09 08:47:01;;;;;;;;;2.00;1.75;;;;;27.84;100.00;98685.38;6291953;27;96487;-63
2023/08/09 08:50:08;;;;;;;;;3.00;2.00;;;;;27.95;100.00;98680.22;6291786;27;96424;-63
2023/08/09 08:53:12;;;;;;;;;2.25;2.25;;;;;28.18;100.00;98684.25;6289158;27;96661;-65
2023/08/09 08:56:15;;;;;;;;;4.50;3.00;;;;;28.18;100.00;98672.34;6272944;27;97329;-64
2023/08/09 08:59:19;;;;;;;;;3.00;3.00;;;;;28.36;100.00;98682.06;6290829;27;96459;-64
2023/08/09 09:02:22;;;;;;;;;2.00;1.00;;;;;28.54;100.00;98688.25;6269608;27;96894;-64
2023/08/09 09:05:27;;;;;;;;;4.00;4.00;;;;;28.50;100.00;98685.34;6272751;27;97823;-63
2023/08/09 09:08:30;;;;;;;;;2.00;2.00;;;;;28.41;95.64;98682.66;6290199;27;96334;-64
2023/08/09 09:11:35;;;;;;;;;3.00;3.00;;;;;28.52;100.00;98685.00;6266568;27;96206;-63
2023/08/09 09:14:39;;;;;;;;;2.40;2.40;;;;;28.71;94.02;98677.78;6290449;27;96449;-63
2023/08/09 09:17:44;;;;;;;;;3.00;3.00;;;;;28.90;91.44;98691.06;6291612;27;96362;-64
2023/08/09 09:20:51;;;;;;;;;1.00;1.00;;;;;28.97;86.75;98680.22;6276607;27;96892;-64
2023/08/09 09:23:54;;;;;;;;;2.00;2.00;;;;;29.28;89.66;98674.03;6289227;27;96340;-66
2023/08/09 09:26:57;;;;;;;;;2.60;2.60;;;;;29.71;86.61;98670.59;6284678;27;96548;-64
2023/08/09 09:30:04;;;;;;;;;2.00;2.00;;;;;29.78;79.02;98679.13;6273776;27;96753;-63
2023/08/09 09:33:10;;;;;;;;;3.00;3.00;;;;;29.90;82.97;98669.97;6290141;27;96431;-64
2023/08/09 09:36:16;;;;;;;;;2.00;2.00;;;;;29.78;81.42;98664.41;6284333;27;96277;-63
2023/08/09 09:39:20;;;;;;;;;2.00;2.00;;;;;29.95;85.02;98662.19;6282093;27;96268;-64
2023/08/09 09:42:31;;;;;;;;;2.20;1.20;;;;;30.15;89.28;98654.78;6289326;27;97279;-64
2023/08/09 09:45:36;;;;;;;;;2.00;2.00;;;;;30.30;87.20;98667.09;6289762;27;96362;-64
2023/08/09 09:48:40;;;;;;;;;2.60;2.00;;;;;30.00;85.15;98666.69;6269995;27;96809;-65
2023/08/09 09:51:46;;;;;;;;;2.00;2.00;;;;;29.46;81.56;98657.94;6271479;27;96677;-64
2023/08/09 09:54:50;;;;;;;;;3.75;3.00;;;;;29.34;87.16;98666.28;6263515;27;96399;-63
2023/08/09 09:57:54;;;;;;;;;2.00;2.00;;;;;29.14;86.10;98652.19;6287529;27;96316;-63
2023/08/09 10:00:57;;;;;;;;;3.00;3.00;;;;;29.03;84.75;98656.59;6247371;27;96832;-63
2023/08/09 10:04:06;;;;;;;;;2.60;2.60;;;;;29.15;83.94;98655.78;6246571;27;96892;-64
2023/08/09 10:07:12;;;;;;;;;3.00;2.00;;;;;29.14;80.44;98651.38;6264977;27;96291;-64
2023/08/09 10:10:17;;;;;;;;;3.00;3.00;;;;;29.49;81.12;98651.69;6239807;28;96347;-63
2023/08/09 10:13:24;;;;;;;;;2.20;2.00;;;;;29.70;77.94;98643.97;6256110;27;96732;-64
2023/08/09 10:16:29;;;;;;;;;2.00;2.00;;;;;29.84;82.71;98641.59;6264978;27;96331;-64
2023/08/09 10:19:33;;;;;;;;;2.00;2.00;;;;;29.98;80.35;98639.22;6264478;27;96867;-64
2023/08/09 10:22:38;;;;;;;;;2.00;2.00;;;;;29.96;76.58;98641.53;6248705;27;99594;-64
2023/08/09 10:25:46;;;;;;;;;2.50;2.50;;;;;29.64;77.15;98642.59;6257757;27;98540;-63
2023/08/09 10:28:49;;;;;;;;;1.80;1.80;;;;;29.38;79.65;98636.66;6248954;27;96327;-63
2023/08/09 10:31:55;;;;;;;;;3.00;3.00;;;;;29.02;81.46;98637.53;6261970;27;96394;-64
2023/08/09 10:34:58;;;;;;;;;2.00;2.00;;;;;28.60;82.23;98651.59;6262127;27;96423;-63
2023/08/09 10:38:08;;;;;;;;;3.00;3.00;;;;;28.04;84.23;98638.56;6227578;27;96754;-64
2023/08/09 10:41:13;;;;;;;;;2.00;2.00;;;;;28.01;86.84;98653.88;6227247;27;98620;-65
2023/08/09 10:44:16;;;;;;;;;4.00;4.00;;;;;27.85;87.43;98658.47;6252521;27;97056;-64
2023/08/09 10:47:22;;;;;;;;;5.00;4.00;;;;;27.71;89.17;98652.44;6255984;27;96727;-63
2023/08/09 10:50:32;;;;;;;;;3.00;2.00;;;;;27.69;92.15;98655.53;6263948;27;96348;-64
2023/08/09 10:53:57;;;;;;;;;3.00;3.00;;;;;27.51;90.79;98654.84;6241970;27;96273;-63
2023/08/09 10:57:09;;;;;;;;;3.00;3.00;;;;;27.50;90.02;98646.91;6252368;27;96820;-63
2023/08/09 11:00:13;;;;;;;;;3.00;3.00;;;;;27.47;93.20;98651.09;6260160;27;96363;-63
2023/08/09 11:03:17;;;;;;;;;3.00;3.00;;;;;27.56;94.01;98645.56;6262638;27;96396;-64
2023/08/09 11:06:33;;;;;;;;;3.00;3.00;;;;;27.60;94.71;98638.19;6262036;27;96173;-63
2023/08/09 11:09:38;;;;;;;;;2.25;2.25;;;;;27.62;91.65;98633.09;6283527;27;96344;-63
2023/08/09 11:12:43;;;;;;;;;2.20;2.00;;;;;27.54;94.87;98629.25;6290269;27;96339;-63
2023/08/09 11:15:48;;;;;;;;;3.00;2.80;;;;;27.43;93.75;98633.56;6289303;27;96188;-63
2023/08/09 11:18:59;;;;;;;;;3.00;3.00;;;;;27.25;92.64;98626.53;6269701;27;96328;-64
2023/08/09 11:22:03;;;;;;;;;4.00;3.00;;;;;27.12;96.81;98638.69;6287840;27;96342;-63
2023/08/09 11:25:09;;;;;;;;;4.00;3.00;;;;;26.87;97.98;98645.19;6267296;27;96628;-63
2023/08/09 11:28:14;;;;;;;;;2.00;2.00;;;;;26.62;100.00;98655.22;6253688;27;96355;-63
2023/08/09 11:31:17;;;;;;;;;3.00;3.00;;;;;26.43;100.00;98655.63;6285968;27;96466;-63
2023/08/09 11:34:22;;;;;;;;;3.60;2.60;;;;;26.24;100.00;98664.28;6242509;27;98582;-64
2023/08/09 11:37:25;;;;;;;;;4.00;3.40;;;;;26.04;100.00;98669.69;6282334;27;96739;-63
2023/08/09 11:40:30;;;;;;;;;3.60;2.40;;;;;25.74;100.00;98672.34;6284824;27;96321;-64
2023/08/09 11:43:39;;;;;;;;;2.00;2.00;;;;;25.64;100.00;98669.91;6265340;27;96912;-64
2023/08/09 11:46:46;;;;;;;;;4.00;4.00;;;;;25.87;100.00;98660.28;6269107;27;96466;-63
2023/08/09 11:49:50;;;;;;;;;2.60;2.40;;;;;26.11;100.00;98668.03;6278312;27;97669;-63
2023/08/09 11:52:54;;;;;;;;;2.00;2.00;;;;;26.35;100.00;98664.75;6280106;27;96393;-63
2023/08/09 11:56:04;;;;;;;;;4.00;3.00;;;;;26.53;100.00;98666.31;6285554;27;96385;-63
2023/08/09 11:59:08;;;;;;;;;3.00;3.00;;;;;26.68;100.00;98664.97;6283023;27;96621;-63
2023/08/09 12:02:13;;;;;;;;;3.00;3.00;;;;;26.61;100.00;98695.88;6286241;27;96705;-64
2023/08/09 12:05:16;;;;;;;;;3.00;3.00;;;;;26.83;100.00;98669.13;6285760;27;96360;-63
2023/08/09 12:08:33;;;;;;;;;2.00;2.00;;;;;26.89;100.00;98678.84;6249668;27;98620;-63
2023/08/09 12:11:37;;;;;;;;;4.00;3.00;;;;;26.67;100.00;98679.94;6287921;27;96397;-63
2023/08/09 12:14:42;;;;;;;;;3.00;3.00;;;;;26.46;100.00;98665.19;6266054;27;97211;-63
2023/08/09 12:17:47;;;;;;;;;4.00;3.00;;;;;26.51;100.00;98670.56;6250337;27;96475;-64
2023/08/09 12:20:50;;;;;;;;;3.00;2.33;;;;;26.66;100.00;98670.81;6267938;27;96544;-63
2023/08/09 12:23:53;;;;;;;;;3.00;3.00;;;;;26.71;100.00;98673.41;6287449;27;96370;-64
2023/08/09 12:26:58;;;;;;;;;3.75;3.75;;;;;26.57;100.00;98672.81;6259481;27;97007;-64
2023/08/09 12:30:01;;;;;;;;;4.20;4.00;;;;;26.51;100.00;98681.63;6265976;27;98742;-64
2023/08/09 12:33:08;;;;;;;;;4.00;4.00;;;;;26.27;100.00;98696.00;6242568;27;96741;-63
2023/08/09 12:36:12;;;;;;;;;2.60;2.60;;;;;26.06;100.00;98690.31;6261618;27;96435;-63
2023/08/09 12:39:16;;;;;;;;;3.00;3.00;;;;;25.81;100.00;98699.44;6278619;27;96385;-64
2023/08/09 12:42:20;;;;;;;;;3.00;3.00;;;;;25.67;100.00;98699.63;6259221;27;99487;-63
2023/08/09 12:45:23;;;;;;;;;4.00;4.00;;;;;25.54;100.00;98695.06;6279294;27;97060;-63
2023/08/09 12:48:27;;;;;;;;;4.00;4.00;;;;;25.53;100.00;98698.13;6288067;27;96767;-63
2023/08/09 12:51:30;;;;;;;;;3.00;2.00;;;;;25.49;100.00;98695.22;6272893;27;97524;-62
2023/08/09 12:54:33;;;;;;;;;3.00;3.00;;;;;25.55;100.00;98699.47;6247121;27;98561;-62
2023/08/09 12:57:38;;;;;;;;;4.00;3.40;;;;;25.27;100.00;98704.44;6286194;27;96400;-63
2023/08/09 13:00:45;;;;;;;;;3.00;2.75;;;;;25.23;100.00;98694.34;6276056;27;96971;-63
2023/08/09 13:03:49;;;;;;;;;5.00;4.00;;;;;25.19;100.00;98707.19;6287559;27;96719;-63
2023/08/09 13:06:52;;;;;;;;;5.40;5.00;;;;;25.07;100.00;98713.31;6264245;27;96531;-63
2023/08/09 13:09:55;;;;;;;;;3.75;3.75;;;;;25.09;100.00;98711.06;6272637;27;96361;-63
2023/08/09 13:13:00;;;;;;;;;4.00;4.00;;;;;25.13;100.00;98708.44;6290164;27;96873;-63
2023/08/09 13:16:05;;;;;;;;;4.20;4.00;;;;;24.98;100.00;98718.81;6290587;27;96410;-63
2023/08/09 13:19:08;;;;;;;;;4.00;4.00;;;;;24.81;100.00;98715.16;6254850;27;96701;-63
2023/08/09 13:22:11;;;;;;;;;4.00;3.40;;;;;24.48;100.00;98704.47;6255485;27;96445;-63
2023/08/09 13:25:15;;;;;;;;;3.75;3.00;;;;;24.40;100.00;98704.44;6254853;27;96852;-63
2023/08/09 13:28:19;;;;;;;;;3.00;3.00;;;;;24.26;100.00;98703.69;6271307;27;96724;-63
2023/08/09 13:31:23;;;;;;;;;6.00;5.75;;;;;24.34;100.00;98694.66;6289780;27;96403;-62
2023/08/09 13:34:26;;;;;;;;;5.40;5.00;;;;;24.30;100.00;98696.44;6290172;27;96331;-63
2023/08/09 13:37:29;;;;;;;;;3.00;3.00;;;;;24.33;100.00;98691.13;6287346;27;96400;-62
2023/08/09 13:40:33;;;;;;;;;8.00;6.60;;;;;24.33;100.00;98687.56;6276128;27;96436;-63
2023/08/09 13:43:38;;;;;;;;;5.00;5.00;;;;;24.40;100.00;98690.66;6293676;27;96382;-63
2023/08/09 13:46:41;;;;;;;;;3.50;3.50;;;;;24.38;100.00;98688.22;6290044;27;96356;-62
2023/08/09 13:49:44;;;;;;;;;2.60;2.00;;;;;24.42;100.00;98680.13;6270578;27;98555;-63
2023/08/09 13:52:48;;;;;;;;;4.25;4.25;;;;;24.47;100.00;98691.84;6262459;27;98675;-62
2023/08/09 13:55:52;;;;;;;;;3.00;3.00;;;;;24.41;100.00;98675.75;6287487;27;96466;-62
2023/08/09 13:58:56;;;;;;;;;2.00;2.00;;;;;24.46;100.00;98686.63;6271123;27;99813;-63
2023/08/09 14:02:00;;;;;;;;;3.25;3.25;;;;;24.55;100.00;98685.53;6288985;27;96421;-62
2023/08/09 14:05:04;;;;;;;;;3.00;3.00;;;;;24.46;100.00;98672.84;6263072;27;96571;-62
2023/08/09 14:08:07;;;;;;;;;3.00;3.00;;;;;24.69;100.00;98693.69;6289194;27;96286;-63
2023/08/09 14:11:10;;;;;;;;;3.75;3.00;;;;;24.57;100.00;98693.50;6289635;27;96440;-63
2023/08/09 14:14:15;;;;;;;;;3.00;3.00;;;;;24.47;100.00;98680.81;6284598;27;96541;-63
2023/08/09 14:17:18;;;;;;;;;3.00;2.20;;;;;24.31;100.00;98671.31;6289286;27;96251;-62
2023/08/09 14:20:22;;;;;;;;;2.20;2.20;;;;;24.34;100.00;98676.19;6289803;27;96916;-63